Flight Track Log - Related Links

Times and Time Zones

All times are in EDT time to prevent confusion due to time zone crossing. See the WMA521 flight status page for this flight to view local times or setup timezone preferences in your user account.

Time Position Orientation Groundspeed Altitude Reporting Facility
EDT Latitude Longitude Course Direction KTS MPH feet Rate Location/Type
Fri 07:05:10 AM 26.1953 -80.1678 88° East 73 84 300  Level Miami Center
Fri 07:05:58 AM 26.1958 -80.1469 88° East 85 98 800 550 Climbing Miami Center
Fri 07:06:59 AM 26.1986 -80.1192 84° East 97 112 1,300 614 Climbing Miami Center
Fri 07:08:05 AM 26.2017 -80.0775 85° East 115 132 2,100 678 Climbing Miami Center
Fri 07:08:54 AM 26.2042 -80.0500 84° East 113 130 2,600 672 Climbing Miami Center
Fri 07:10:01 AM 26.2072 -80.0106 85° East 114 131 3,400 656 Climbing Miami Center
Fri 07:11:02 AM 26.2122 -79.9761 81° East 115 132 4,000 564 Climbing Miami Center
Fri 07:12:30 AM 26.2069 -79.9250 97° East 123 142 4,800 608 Climbing Miami Center
Fri 07:13:30 AM 26.1992 -79.8969 107° East 110 127 5,500 600 Climbing Miami Center
Fri 07:14:30 AM 26.1917 -79.8619 103° East 105 121 6,000 550 Climbing Miami Center
Fri 07:15:30 AM 26.1797 -79.8317 93° East 111 128 6,600 600 Climbing Miami Center
Fri 07:16:30 AM 26.1700 -79.7967 107° East 111 128 7,200 600 Climbing Miami Center
Fri 07:17:30 AM 26.1600 -79.7664 110° East 111 128 7,800 650 Climbing Miami Center
Fri 07:18:30 AM 26.1397 -79.7428 134° Southeast 111 128 8,500 600 Climbing Miami Center
Fri 07:19:30 AM 26.1172 -79.7167 134° Southeast 111 128 9,000 500 Climbing Miami Center
Fri 07:20:30 AM 26.0944 -79.6978 143° Southeast 111 128 9,500 500 Climbing Miami Center
Fri 07:21:30 AM 26.0719 -79.6717 134° Southeast 108 124 10,000 500 Climbing Miami Center
Fri 07:22:30 AM 26.0475 -79.6503 142° Southeast 108 124 10,500 400 Climbing Miami Center
Fri 07:23:30 AM 26.0269 -79.6244 132° Southeast 108 124 10,800 300 Climbing Miami Center
Fri 07:24:30 AM 26.0025 -79.6008 139° Southeast 108 124 11,100 150 Climbing Miami Center
Fri 07:25:30 AM 25.9758 -79.5700 134° Southeast 118 136 11,100  Level Miami Center
Fri 07:26:30 AM 25.9472 -79.5369 134° Southeast 143 165 11,100  Level Miami Center
Fri 07:27:30 AM 25.9122 -79.5017 138° Southeast 153 176 11,100  Level Miami Center
Fri 07:28:30 AM 25.8836 -79.4733 138° Southeast 153 176 11,100  Level Miami Center
Fri 07:29:30 AM 25.8508 -79.4403 138° Southeast 153 176 11,100  Level Miami Center
Fri 07:30:30 AM 25.8242 -79.4075 132° Southeast 153 176 11,100  Level Miami Center
Fri 07:31:30 AM 25.7956 -79.3697 130° Southeast 148 170 11,100  Level Miami Center
Fri 07:32:30 AM 25.7669 -79.3369 134° Southeast 148 170 11,100  Level Miami Center
Fri 07:33:30 AM 25.7422 -79.3111 137° Southeast 148 170 11,100  Level Miami Center
Fri 07:34:30 AM 25.7114 -79.2736 132° Southeast 148 170 11,100  Level Miami Center
Fri 07:35:30 AM 25.6808 -79.2383 134° Southeast 143 165 11,100  Level Miami Center
Fri 07:36:30 AM 25.6542 -79.2033 130° Southeast 143 165 11,100  Level Miami Center
Fri 07:37:30 AM 25.6275 -79.1728 134° Southeast 143 165 11,100  Level Miami Center
Fri 07:38:30 AM 25.6008 -79.1353 128° Southeast 143 165 11,100  Level Miami Center
Fri 07:39:30 AM 25.5742 -79.1028 132° Southeast 143 165 11,100  Level Miami Center
Fri 07:40:30 AM 25.5433 -79.0675 134° Southeast 143 165 11,100  Level Miami Center
Fri 07:41:30 AM 25.5147 -79.0347 134° Southeast 143 165 11,100  Level Miami Center
Fri 07:42:30 AM 25.4836 -79.0044 139° Southeast 148 170 11,100  Level Miami Center
Fri 07:43:30 AM 25.4550 -78.9739 136° Southeast 148 170 11,100  Level Miami Center
Fri 07:44:30 AM 25.4239 -78.9433 138° Southeast 159 183 11,100  Level Miami Center
Fri 07:45:30 AM 25.3953 -78.9108 134° Southeast 159 183 11,100  Level Miami Center
Fri 07:46:30 AM 25.3622 -78.8825 142° Southeast 159 183 11,100  Level Miami Center
Fri 07:47:30 AM 25.3333 -78.8500 135° Southeast 159 183 11,100  Level Miami Center
Fri 07:48:30 AM 25.3025 -78.8172 136° Southeast 159 183 11,100  Level Miami Center
Fri 07:49:30 AM 25.2736 -78.7869 137° Southeast 159 183 11,100  Level Miami Center
Fri 07:50:30 AM 25.2428 -78.7542 136° Southeast 154 177 11,100  Level Miami Center
Fri 07:51:30 AM 25.2117 -78.7239 139° Southeast 154 177 11,100  Level Miami Center
Fri 07:52:30 AM 25.1850 -78.6892 130° Southeast 154 177 11,100  Level Miami Center
Fri 07:53:30 AM 25.1581 -78.6564 132° Southeast 148 170 11,100  Level Miami Center
Fri 07:54:30 AM 25.1250 -78.6261 140° Southeast 148 170 11,100  Level Miami Center
Fri 07:55:30 AM 25.0919 -78.5958 140° Southeast 154 177 11,100  Level Miami Center
Fri 07:56:30 AM 25.0631 -78.5633 134° Southeast 154 177 11,100  Level Miami Center
Fri 07:57:30 AM 25.0344 -78.5286 132° Southeast 154 177 11,100  Level Miami Center
Fri 07:58:30 AM 25.0053 -78.4983 137° Southeast 154 177 11,100  Level Miami Center
Fri 07:59:30 AM 24.9703 -78.4636 138° Southeast 159 183 11,100  Level Miami Center
Fri 08:00:30 AM 24.9414 -78.4333 136° Southeast 159 183 11,100  Level Miami Center
Fri 08:01:30 AM 24.9103 -78.4033 139° Southeast 159 183 11,100  Level Miami Center
Fri 08:02:30 AM 24.8833 -78.3708 132° Southeast 159 183 11,100  Level Miami Center
Fri 08:03:30 AM 24.8461 -78.3383 142° Southeast 159 183 11,100 -50 Level Miami Center
Fri 08:04:30 AM 24.8194 -78.3058 132° Southeast 159 183 11,000 -350 Descending Miami Center
Fri 08:05:30 AM 24.7819 -78.2711 140° Southeast 159 183 10,400 -550 Descending Miami Center
Fri 08:06:30 AM 24.7489 -78.2342 135° Southeast 165 190 9,900 -550 Descending Miami Center
Fri 08:07:30 AM 24.7158 -78.1947 133° Southeast 165 190 9,300 -600 Descending Miami Center
Fri 08:08:30 AM 24.6828 -78.1578 135° Southeast 165 190 8,700 -600 Descending Miami Center
Fri 08:09:30 AM 24.6497 -78.1211 135° Southeast 170 196 8,100 -600 Descending Miami Center
Fri 08:10:30 AM 24.6186 -78.0817 131° Southeast 170 196 7,500 -550 Descending Miami Center
Fri 08:11:30 AM 24.5833 -78.0450 137° Southeast 177 204 7,000 -400 Descending Miami Center
Fri 08:12:30 AM 24.5503 -78.0081 135° Southeast 177 204 6,700 -450 Descending Miami Center
Fri 08:13:30 AM 24.5128 -77.9733 140° Southeast 171 197 6,100 -600 Descending Miami Center

Login

Don't have an account? Register now (free) for customized features, flight alerts, and more!